createdAt,value
2017-09-21T15:33:54.077Z,3484
2017-09-21T15:34:46.560Z,3484
2017-09-21T15:35:47.217Z,3460
2017-09-21T15:36:47.189Z,3432
2017-09-21T15:37:47.199Z,3424
2017-09-21T15:38:48.804Z,3428
2017-09-21T15:39:46.600Z,3396
2017-09-21T15:40:46.575Z,3392
2017-09-21T15:41:46.895Z,3356
2017-09-21T15:42:46.610Z,3300
2017-09-21T15:43:46.279Z,3296
2017-09-21T15:44:46.597Z,3264
2017-09-21T15:45:46.584Z,3232
2017-09-21T15:46:47.213Z,3200
2017-09-21T15:47:46.910Z,3192
2017-09-21T15:48:46.596Z,3164
2017-09-21T15:49:47.225Z,3152
2017-09-21T15:50:46.916Z,3128
2017-09-21T15:51:46.600Z,3112
2017-09-21T15:52:47.226Z,3084
2017-09-21T15:53:47.231Z,3068
2017-09-21T15:54:46.919Z,3052
2017-09-21T15:55:47.240Z,3024
2017-09-21T15:56:46.919Z,3020
2017-09-21T15:57:47.230Z,3016
2017-09-21T15:58:47.240Z,3036
2017-09-21T15:59:46.931Z,3032
2017-09-21T16:00:46.931Z,3028
2017-09-21T16:01:46.624Z,3020
2017-09-21T16:02:46.932Z,2996
2017-09-21T16:03:47.239Z,2972
2017-09-21T16:04:46.946Z,2956
2017-09-21T16:05:46.621Z,2940
2017-09-21T16:06:46.937Z,2920
2017-09-21T16:07:46.628Z,2900
2017-09-21T16:08:46.629Z,2876
2017-09-21T16:09:46.944Z,2852
2017-09-21T16:10:46.951Z,2824
2017-09-21T16:11:46.944Z,2792
2017-09-21T16:12:46.946Z,2756
2017-09-21T16:13:46.953Z,2724
2017-09-21T16:14:46.987Z,2684
2017-09-21T16:15:47.021Z,2644
2017-09-21T16:16:47.273Z,2592
2017-09-21T16:17:47.270Z,2536
2017-09-21T16:18:46.328Z,2488
2017-09-21T16:19:47.305Z,2444
2017-09-21T16:20:47.289Z,2396
2017-09-21T16:21:47.322Z,2348
2017-09-21T16:22:46.972Z,2296
2017-09-21T16:23:47.288Z,2248
2017-09-21T16:24:47.337Z,2192
2017-09-21T16:25:46.981Z,2136
2017-09-21T16:26:47.293Z,2076
2017-09-21T16:27:47.093Z,2028
2017-09-21T16:28:46.979Z,1992
2017-09-21T16:29:46.681Z,1952
2017-09-21T16:30:46.663Z,1924
2017-09-21T16:31:47.000Z,1896
2017-09-21T16:32:47.294Z,1868
2017-09-21T16:33:47.017Z,1840
2017-09-21T16:34:48.401Z,1808
2017-09-21T16:35:47.297Z,1780
2017-09-21T16:36:46.997Z,1736
2017-09-21T16:37:47.022Z,1696
2017-09-21T16:38:47.022Z,1652
2017-09-21T16:39:46.687Z,1608
2017-09-21T16:40:47.301Z,1572
2017-09-21T16:41:46.675Z,1532
2017-09-21T16:42:46.997Z,1488
2017-09-21T16:43:47.302Z,1448
2017-09-21T16:44:47.007Z,1404
2017-09-21T16:45:47.005Z,1364
2017-09-21T16:46:47.024Z,1328
2017-09-21T16:47:47.322Z,1284
2017-09-21T16:48:47.123Z,1248
2017-09-21T16:49:46.778Z,1208
2017-09-21T16:50:46.695Z,1176
2017-09-21T16:51:47.011Z,1136
2017-09-21T16:52:47.014Z,1092
2017-09-21T16:53:47.017Z,1044
2017-09-21T16:54:46.707Z,1000
2017-09-21T16:55:46.712Z,956
2017-09-21T16:56:46.715Z,912
2017-09-21T16:57:46.734Z,864
2017-09-21T16:58:46.847Z,820
2017-09-21T16:59:47.023Z,784
2017-09-21T17:00:47.024Z,744
2017-09-21T17:01:47.017Z,708
2017-09-21T17:02:47.024Z,672
2017-09-21T17:03:47.034Z,640
2017-09-21T17:04:48.923Z,612
2017-09-21T17:05:47.035Z,580
2017-09-21T17:06:46.799Z,556
2017-09-21T17:07:47.387Z,528
2017-09-21T17:08:46.720Z,500
2017-09-21T17:09:47.378Z,468
2017-09-21T17:10:46.719Z,440
2017-09-21T17:11:47.018Z,412
2017-09-21T17:12:47.072Z,384
2017-09-21T17:13:47.341Z,360
2017-09-21T17:14:47.022Z,328
2017-09-21T17:15:46.709Z,304
2017-09-21T17:16:47.413Z,276
2017-09-21T17:17:47.109Z,256
2017-09-21T17:18:46.767Z,228
2017-09-21T17:19:46.770Z,208
2017-09-21T17:20:46.710Z,188
2017-09-21T17:21:46.717Z,164
2017-09-21T17:22:47.285Z,152
2017-09-21T17:23:47.025Z,136
2017-09-21T17:24:46.715Z,124
2017-09-21T17:25:47.022Z,112
2017-09-21T17:26:46.844Z,100
2017-09-21T17:27:46.713Z,88
2017-09-21T17:28:46.713Z,76
2017-09-21T17:29:47.215Z,68
2017-09-21T17:30:47.342Z,60
2017-09-21T17:31:46.718Z,52
2017-09-21T17:32:47.059Z,44
2017-09-21T17:33:47.024Z,40
2017-09-21T17:34:48.144Z,32
2017-09-21T17:35:46.721Z,32
2017-09-21T17:36:47.410Z,24
2017-09-21T17:37:46.716Z,20
2017-09-21T17:38:46.742Z,20
2017-09-21T17:39:47.353Z,16
2017-09-21T17:40:46.709Z,12
2017-09-21T17:41:46.720Z,12
2017-09-21T17:42:46.713Z,8
2017-09-21T17:43:46.776Z,4
2017-09-21T17:44:46.715Z,8
2017-09-21T17:45:47.171Z,4
2017-09-21T17:46:46.779Z,4
2017-09-21T17:47:47.359Z,4
2017-09-21T17:48:47.358Z,4
2017-09-21T17:49:47.043Z,4
2017-09-21T17:50:47.087Z,4
2017-09-21T17:51:47.026Z,4
2017-09-21T17:52:46.716Z,4
2017-09-21T17:53:47.341Z,0
2017-09-21T17:54:47.034Z,0
2017-09-21T17:55:47.024Z,0
2017-09-21T17:56:47.337Z,0
2017-09-21T17:57:47.328Z,0
2017-09-21T17:58:46.729Z,0
2017-09-21T17:59:46.709Z,0
2017-09-21T18:00:46.708Z,0
2017-09-21T18:01:47.027Z,0
2017-09-21T18:02:47.029Z,0
2017-09-21T18:03:47.023Z,0
2017-09-21T18:04:46.707Z,0
2017-09-21T18:05:48.928Z,0
2017-09-21T18:06:47.020Z,0
2017-09-21T18:07:47.335Z,0
2017-09-21T18:08:47.420Z,0
2017-09-21T18:09:47.334Z,0
2017-09-21T18:10:47.017Z,0
2017-09-21T18:11:46.719Z,0
2017-09-21T18:12:46.709Z,0
2017-09-21T18:13:47.016Z,0
2017-09-21T18:14:47.014Z,0
2017-09-21T18:15:46.389Z,0
2017-09-21T18:16:47.340Z,0
2017-09-21T18:17:47.081Z,0
2017-09-21T18:18:46.697Z,0
2017-09-21T18:19:47.347Z,0
2017-09-21T18:20:47.061Z,0
2017-09-21T18:21:46.403Z,0
2017-09-21T18:22:46.698Z,0
2017-09-21T18:23:47.020Z,0
2017-09-21T18:24:47.008Z,0
2017-09-21T18:25:46.718Z,0
2017-09-21T18:26:46.694Z,0
2017-09-21T18:27:47.006Z,0
2017-09-21T18:28:47.042Z,0
2017-09-21T18:29:47.052Z,0
2017-09-21T18:30:46.720Z,0
2017-09-21T18:31:47.008Z,0
2017-09-21T18:32:47.316Z,0
2017-09-21T18:33:46.716Z,0
2017-09-21T18:34:47.007Z,0
2017-09-21T18:35:51.555Z,0
2017-09-21T18:36:46.688Z,0
2017-09-21T18:37:47.315Z,0
2017-09-21T18:38:46.698Z,0
2017-09-21T18:39:46.993Z,0
2017-09-21T18:40:47.344Z,0
2017-09-21T18:41:46.704Z,0
2017-09-21T18:42:46.711Z,0
2017-09-21T18:43:46.365Z,0
2017-09-21T18:44:46.988Z,0
2017-09-21T18:45:47.313Z,0
2017-09-21T18:46:46.691Z,0
2017-09-21T18:47:47.019Z,0
2017-09-21T18:48:47.002Z,0
2017-09-21T18:49:46.361Z,0
2017-09-21T18:50:47.304Z,0
2017-09-21T18:51:47.148Z,0
2017-09-21T18:52:46.847Z,0
2017-09-21T18:53:47.079Z,0
2017-09-21T18:54:46.356Z,0
2017-09-21T18:55:47.051Z,0
2017-09-21T18:56:46.980Z,0
2017-09-21T18:57:46.993Z,0
2017-09-21T18:58:47.295Z,0
2017-09-21T18:59:46.973Z,0
2017-09-21T19:00:47.093Z,0
2017-09-21T19:01:47.041Z,0
2017-09-21T19:02:46.363Z,0
2017-09-21T19:03:47.312Z,0
2017-09-21T19:04:46.674Z,0
2017-09-21T19:05:46.749Z,0
2017-09-21T19:06:47.589Z,0
2017-09-21T19:07:47.565Z,0
2017-09-21T19:08:47.311Z,0
2017-09-21T19:09:47.256Z,0
2017-09-21T19:10:47.363Z,0
2017-09-21T19:11:46.963Z,0
2017-09-21T19:12:47.008Z,0
2017-09-21T19:13:47.313Z,0
2017-09-21T19:14:46.975Z,0
2017-09-21T19:15:47.034Z,0
2017-09-21T19:16:46.987Z,0
2017-09-21T19:17:46.965Z,0
2017-09-21T19:18:46.991Z,0
2017-09-21T19:19:46.735Z,0
2017-09-21T19:20:46.951Z,0
2017-09-21T19:21:46.993Z,0
2017-09-21T19:22:47.506Z,0
2017-09-21T19:23:46.969Z,0
2017-09-21T19:24:47.252Z,0
2017-09-21T19:25:46.334Z,0
2017-09-21T19:26:46.952Z,0
2017-09-21T19:27:46.657Z,0
2017-09-21T19:28:46.970Z,0
2017-09-21T19:29:46.652Z,0
2017-09-21T19:30:46.659Z,0
2017-09-21T19:31:47.271Z,0
2017-09-21T19:32:46.638Z,0
2017-09-21T19:33:46.956Z,0
2017-09-21T19:34:46.322Z,0
2017-09-21T19:35:46.971Z,0
2017-09-21T19:36:48.277Z,0
2017-09-21T19:37:46.939Z,0
2017-09-21T19:38:46.322Z,0
2017-09-21T19:39:47.183Z,0
2017-09-21T19:40:46.936Z,0
2017-09-21T19:41:46.602Z,0
2017-09-21T19:42:46.629Z,0
2017-09-21T19:43:46.957Z,0
2017-09-21T19:44:46.628Z,0
2017-09-21T19:45:46.607Z,0
2017-09-21T19:46:47.263Z,0
2017-09-21T19:47:46.381Z,0
2017-09-21T19:48:46.615Z,0
2017-09-21T19:49:46.352Z,0
2017-09-21T19:50:46.610Z,0
2017-09-21T19:51:47.323Z,0
2017-09-21T19:52:46.936Z,0
2017-09-21T19:53:46.928Z,0
2017-09-21T19:54:47.257Z,0
2017-09-21T19:55:46.917Z,0
2017-09-21T19:56:46.934Z,0
2017-09-21T19:57:47.226Z,0
2017-09-21T19:58:46.891Z,0
2017-09-21T19:59:47.218Z,0
2017-09-21T20:00:47.218Z,0
2017-09-21T20:01:46.900Z,0
2017-09-21T20:02:47.193Z,0
2017-09-21T20:03:46.871Z,0
2017-09-21T20:04:47.009Z,0
2017-09-21T20:05:46.914Z,0
2017-09-21T20:06:46.736Z,0
2017-09-21T20:07:46.929Z,0
2017-09-21T20:08:46.917Z,0
2017-09-21T20:09:47.223Z,0
2017-09-21T20:10:46.271Z,0
2017-09-21T20:11:47.224Z,0
2017-09-21T20:12:46.869Z,0
2017-09-21T20:13:46.880Z,0
2017-09-21T20:14:47.390Z,0
2017-09-21T20:15:46.903Z,0
2017-09-21T20:16:46.547Z,0
2017-09-21T20:17:47.192Z,0
2017-09-21T20:18:46.880Z,0
2017-09-21T20:19:46.561Z,0
2017-09-21T20:20:46.552Z,0
2017-09-21T20:21:46.915Z,0
2017-09-21T20:22:46.843Z,0
2017-09-21T20:23:46.573Z,0
2017-09-21T20:24:46.867Z,0
2017-09-21T20:25:46.602Z,0
2017-09-21T20:26:46.584Z,0
2017-09-21T20:27:46.550Z,0
2017-09-21T20:28:46.523Z,0
2017-09-21T20:29:46.520Z,0
2017-09-21T20:30:46.516Z,0
2017-09-21T20:31:46.521Z,0
2017-09-21T20:32:47.154Z,0
2017-09-21T20:33:47.142Z,0
2017-09-21T20:34:46.508Z,0
2017-09-21T20:35:46.509Z,0
2017-09-21T20:36:46.873Z,0
2017-09-21T20:37:46.506Z,0
2017-09-21T20:38:46.525Z,0
2017-09-21T20:39:46.497Z,0
2017-09-21T20:40:47.131Z,0
2017-09-21T20:41:46.562Z,0
2017-09-21T20:42:46.807Z,0
2017-09-21T20:43:47.138Z,0
2017-09-21T20:44:46.488Z,0
2017-09-21T20:45:46.802Z,0
2017-09-21T20:46:46.793Z,0
2017-09-21T20:47:46.487Z,0
2017-09-21T20:48:46.801Z,0
2017-09-21T20:49:46.516Z,0
2017-09-21T20:50:47.174Z,0
2017-09-21T20:51:46.833Z,0
2017-09-21T20:52:47.098Z,0
2017-09-21T20:53:46.785Z,0
2017-09-21T20:54:47.090Z,0
2017-09-21T20:55:47.097Z,0
2017-09-21T20:56:46.771Z,0
2017-09-21T20:57:46.770Z,0
2017-09-21T20:58:46.179Z,0
2017-09-21T20:59:46.971Z,0
2017-09-21T21:00:46.806Z,0
2017-09-21T21:01:46.452Z,0
2017-09-21T21:02:46.760Z,0
2017-09-21T21:03:46.882Z,0
2017-09-21T21:04:46.788Z,0
2017-09-21T21:05:46.512Z,0
2017-09-21T21:06:46.763Z,0
2017-09-21T21:07:47.082Z,0
2017-09-21T21:08:46.741Z,0
2017-09-21T21:09:46.124Z,0
2017-09-21T21:10:46.763Z,0
2017-09-21T21:11:46.738Z,0
2017-09-21T21:12:46.737Z,0
2017-09-21T21:13:46.432Z,0
2017-09-21T21:14:46.418Z,0
2017-09-21T21:15:46.459Z,0
2017-09-21T21:16:46.736Z,0
2017-09-21T21:17:47.036Z,0
2017-09-21T21:18:47.035Z,0
2017-09-21T21:19:46.746Z,0
2017-09-21T21:20:46.786Z,0
2017-09-21T21:21:46.150Z,0
2017-09-21T21:22:46.716Z,0
2017-09-21T21:23:46.718Z,0
2017-09-21T21:24:46.406Z,0
2017-09-21T21:25:47.028Z,0
2017-09-21T21:26:46.705Z,0
2017-09-21T21:27:47.030Z,0
2017-09-21T21:28:46.394Z,0
2017-09-21T21:29:46.716Z,0
2017-09-21T21:30:47.007Z,0
2017-09-21T21:31:46.692Z,0
2017-09-21T21:32:46.692Z,0
2017-09-21T21:33:46.375Z,0
2017-09-21T21:34:46.690Z,0
2017-09-21T21:35:46.678Z,0
2017-09-21T21:36:46.993Z,0
2017-09-21T21:37:46.706Z,0
2017-09-21T21:38:46.390Z,0
2017-09-21T21:39:46.681Z,0
2017-09-21T21:40:46.362Z,0
2017-09-21T21:41:46.674Z,0
2017-09-21T21:42:46.044Z,0
2017-09-21T21:43:46.347Z,0
2017-09-21T21:44:46.665Z,0
2017-09-21T21:45:46.969Z,0
2017-09-21T21:46:46.657Z,0
2017-09-21T21:47:46.655Z,0
2017-09-21T21:48:46.350Z,0
2017-09-21T21:49:46.975Z,0
2017-09-21T21:50:46.336Z,0
2017-09-21T21:51:47.007Z,0
2017-09-21T21:52:46.654Z,0
2017-09-21T21:53:46.951Z,0
2017-09-21T21:54:46.643Z,0
2017-09-21T21:55:46.668Z,0
2017-09-21T21:56:46.646Z,0
2017-09-21T21:57:46.630Z,0
2017-09-21T21:58:46.950Z,0
2017-09-21T21:59:46.007Z,0
2017-09-21T22:00:46.618Z,0
2017-09-21T22:01:46.934Z,0
2017-09-21T22:02:46.931Z,0
2017-09-21T22:03:46.301Z,0
2017-09-21T22:04:46.309Z,0
2017-09-21T22:05:46.605Z,0
2017-09-21T22:06:46.046Z,0
2017-09-21T22:07:46.919Z,0
2017-09-21T22:08:46.600Z,0
2017-09-21T22:09:46.595Z,0
2017-09-21T22:10:46.277Z,0
2017-09-21T22:11:46.897Z,0
2017-09-21T22:12:46.899Z,0
2017-09-21T22:13:46.591Z,0
2017-09-21T22:14:46.898Z,0
2017-09-21T22:15:46.902Z,0
2017-09-21T22:16:46.605Z,0
2017-09-21T22:17:46.259Z,0
2017-09-21T22:18:46.264Z,0
2017-09-21T22:19:46.879Z,0
2017-09-21T22:20:46.251Z,0
2017-09-21T22:21:46.570Z,0
2017-09-21T22:22:46.877Z,0
2017-09-21T22:23:46.248Z,0
2017-09-21T22:24:46.248Z,0
2017-09-21T22:25:46.867Z,0
2017-09-21T22:26:46.866Z,0
2017-09-21T22:27:46.875Z,0
2017-09-21T22:28:46.549Z,0
2017-09-21T22:59:38.050Z,0
2017-09-21T23:00:36.807Z,0
2017-09-21T23:01:36.431Z,0
2017-09-21T23:02:36.725Z,0
2017-09-21T23:03:36.099Z,0
2017-09-21T23:04:36.394Z,0
2017-09-21T23:05:36.389Z,0
2017-09-21T23:06:36.083Z,0
2017-09-21T23:07:36.393Z,0
2017-09-21T23:08:36.061Z,0
2017-09-21T23:09:36.366Z,0
2017-09-21T23:10:36.047Z,0
2017-09-21T23:11:36.664Z,0
2017-09-21T23:12:36.386Z,0
2017-09-21T23:13:36.033Z,0
2017-09-21T23:14:36.392Z,0
2017-09-21T23:15:36.029Z,0
2017-09-21T23:16:36.683Z,0
2017-09-21T23:17:36.640Z,0
2017-09-21T23:18:36.325Z,0
2017-09-21T23:19:36.319Z,0
2017-09-21T23:20:36.017Z,0
2017-09-21T23:21:36.004Z,0
2017-09-21T23:22:36.309Z,0
2017-09-21T23:23:35.992Z,0
2017-09-21T23:26:08.104Z,0
2017-09-21T23:26:56.361Z,0
2017-09-21T23:27:56.668Z,0
2017-09-21T23:28:56.356Z,0
2017-09-21T23:29:56.670Z,0
2017-09-21T23:30:56.661Z,0
2017-09-21T23:31:56.965Z,0
2017-09-21T23:32:56.664Z,0
2017-09-21T23:33:56.661Z,0
2017-09-21T23:34:56.959Z,0
2017-09-21T23:35:56.956Z,0
2017-09-21T23:36:56.329Z,0
2017-09-21T23:37:56.943Z,0
2017-09-21T23:38:56.945Z,0
2017-09-21T23:39:56.626Z,0
2017-09-21T23:40:56.932Z,0
2017-09-21T23:41:56.943Z,0
2017-09-21T23:42:56.617Z,0
2017-09-21T23:43:56.959Z,0
2017-09-21T23:44:56.615Z,0
2017-09-21T23:45:56.616Z,0
2017-09-21T23:46:56.920Z,0
2017-09-21T23:47:56.603Z,0
2017-09-21T23:48:56.287Z,0
2017-09-21T23:49:56.598Z,0
2017-09-21T23:50:56.600Z,0
2017-09-21T23:51:56.598Z,0
2017-09-21T23:52:56.273Z,0
2017-09-21T23:53:56.894Z,0
2017-09-21T23:54:56.585Z,0
2017-09-21T23:55:56.581Z,0
2017-09-21T23:56:56.887Z,0
2017-09-21T23:57:56.584Z,0
2017-09-21T23:58:56.257Z,0
2017-09-21T23:59:56.568Z,0
